Time;durP1;ratioP1;P1;durP2;ratioP2;P2;SDS_P1;SDS_P2;PMS_P1;PMS_P2;Temp;Humidity;BMP_temperature;BMP_pressure;BME280_temperature;BME280_humidity;BME280_pressure;Samples;Min_cycle;Max_cycle;Signal;HPM_P1;HPM_P2
2022/01/07 00:01:03;;;;;;;17.55;10.65;;;128.80;2252.80;;;;;;5037970;28;20495;-58
2022/01/07 00:03:30;;;;;;;23.27;12.80;;;128.70;2252.80;;;;;;5038872;28;20048;-55
2022/01/07 00:05:56;;;;;;;15.70;7.57;;;128.60;2252.80;;;;;;5039788;28;20083;-55
2022/01/07 00:08:22;;;;;;;21.48;11.68;;;128.60;2252.80;;;;;;5037000;28;20053;-56
2022/01/07 00:10:48;;;;;;;22.20;13.00;;;128.60;2252.80;;;;;;5039348;28;20056;-55
2022/01/07 00:13:14;;;;;;;15.38;8.35;;;128.80;2252.80;;;;;;5039679;28;20048;-57
2022/01/07 00:15:41;;;;;;;18.42;10.57;;;128.70;2252.80;;;;;;5037939;28;20376;-55
2022/01/07 00:18:07;;;;;;;29.02;16.00;;;128.70;2252.80;;;;;;5039194;28;20021;-56
2022/01/07 00:20:34;;;;;;;14.85;8.52;;;128.70;2252.80;;;;;;5042345;28;20025;-56
2022/01/07 00:23:01;;;;;;;26.33;17.33;;;128.60;2252.80;;;;;;5039809;28;20021;-57
2022/01/07 00:25:26;;;;;;;22.17;11.63;;;128.50;2252.80;;;;;;5040920;28;20531;-56
2022/01/07 00:27:52;;;;;;;18.92;9.32;;;128.70;2252.80;;;;;;5044318;28;20127;-55
2022/01/07 00:30:20;;;;;;;25.20;14.35;;;128.80;2252.80;;;;;;5037685;28;20118;-56
2022/01/07 00:32:46;;;;;;;17.42;10.50;;;128.60;2252.80;;;;;;5039253;28;20036;-55
2022/01/07 00:35:14;;;;;;;21.30;10.65;;;128.80;2252.80;;;;;;5039215;28;20521;-55
2022/01/07 00:37:41;;;;;;;29.20;12.98;;;128.70;2252.80;;;;;;5040518;28;20032;-55
2022/01/07 00:40:09;;;;;;;34.30;20.10;;;128.80;2252.80;;;;;;5040586;28;20123;-55
2022/01/07 00:42:35;;;;;;;20.55;13.13;;;128.70;2252.80;;;;;;5044170;28;20035;-56
2022/01/07 00:45:01;;;;;;;26.70;13.40;;;128.90;2252.80;;;;;;5040082;28;20029;-57
2022/01/07 00:47:27;;;;;;;23.67;13.27;;;128.90;2252.80;;;;;;5046293;28;20033;-56
2022/01/07 00:49:52;;;;;;;32.33;17.92;;;128.70;2252.80;;;;;;5049713;28;20447;-56
2022/01/07 00:52:19;;;;;;;25.65;12.60;;;128.60;2252.80;;;;;;5049704;28;20034;-56
2022/01/07 00:54:44;;;;;;;21.33;12.02;;;128.70;2252.80;;;;;;5049568;28;20041;-56
2022/01/07 00:57:10;;;;;;;26.45;14.77;;;128.50;2252.80;;;;;;5049919;28;20032;-55
2022/01/07 00:59:36;;;;;;;39.10;24.40;;;128.70;2252.80;;;;;;5049818;28;20040;-59
2022/01/07 01:02:02;;;;;;;31.08;16.13;;;128.70;2252.80;;;;;;5049394;28;20025;-58
2022/01/07 01:04:28;;;;;;;25.65;12.25;;;128.70;2252.80;;;;;;5049580;28;20110;-55
2022/01/07 01:06:53;;;;;;;24.35;14.45;;;128.70;2252.80;;;;;;5049541;28;20025;-55
2022/01/07 01:09:19;;;;;;;19.45;12.68;;;128.60;2252.80;;;;;;5049708;28;20033;-55
2022/01/07 01:11:45;;;;;;;17.70;11.85;;;128.50;2252.80;;;;;;5049817;28;20487;-55
2022/01/07 01:14:11;;;;;;;26.17;15.35;;;128.40;2252.80;;;;;;5049558;28;20108;-57
2022/01/07 01:16:37;;;;;;;26.83;15.13;;;128.40;2252.80;;;;;;5049765;28;20021;-55
2022/01/07 01:19:05;;;;;;;33.50;17.15;;;128.40;2252.80;;;;;;5049573;28;20074;-57
2022/01/07 01:21:31;;;;;;;22.20;13.98;;;128.40;2252.80;;;;;;5053306;28;20056;-59
2022/01/07 01:23:56;;;;;;;29.27;14.10;;;128.40;2252.80;;;;;;5053119;28;20025;-55
2022/01/07 01:26:22;;;;;;;26.88;14.38;;;128.50;2252.80;;;;;;5053010;28;20032;-56
2022/01/07 01:28:48;;;;;;;27.05;14.93;;;128.50;2252.80;;;;;;5053207;28;20357;-55
2022/01/07 01:31:15;;;;;;;23.42;14.73;;;128.40;2252.80;;;;;;5053101;28;20060;-56
2022/01/07 01:33:45;;;;;;;30.38;16.98;;;128.40;2252.80;;;;;;5052796;28;20402;-56
2022/01/07 01:36:12;;;;;;;26.00;14.73;;;128.20;2252.80;;;;;;5053053;28;20025;-54
2022/01/07 01:38:38;;;;;;;32.78;16.98;;;128.40;2252.80;;;;;;5052904;28;20029;-55
2022/01/07 01:41:06;;;;;;;40.28;19.65;;;128.50;2252.80;;;;;;5053015;28;20124;-58
2022/01/07 01:43:32;;;;;;;25.00;16.58;;;128.40;2252.80;;;;;;5052841;28;20100;-55
2022/01/07 01:45:57;;;;;;;32.45;18.00;;;128.40;2252.80;;;;;;5052787;28;20045;-55
2022/01/07 01:48:24;;;;;;;36.25;17.27;;;128.50;2252.80;;;;;;5052654;28;20078;-57
2022/01/07 01:50:51;;;;;;;47.97;24.80;;;128.40;2252.80;;;;;;5052887;28;20363;-58
2022/01/07 01:53:18;;;;;;;33.13;17.58;;;128.40;2252.80;;;;;;5052657;28;20032;-58
2022/01/07 01:55:44;;;;;;;32.00;19.05;;;128.40;2252.80;;;;;;5052563;28;20495;-58
2022/01/07 01:58:11;;;;;;;37.45;19.65;;;128.40;2252.80;;;;;;5052789;28;20032;-55
2022/01/07 02:00:37;;;;;;;43.20;23.50;;;128.40;2252.80;;;;;;5052788;28;20033;-56
2022/01/07 02:03:03;;;;;;;42.22;24.75;;;128.40;2252.80;;;;;;5052275;28;20049;-58
2022/01/07 02:05:29;;;;;;;41.15;22.48;;;128.50;2252.80;;;;;;5052486;28;20383;-55
2022/01/07 02:07:55;;;;;;;33.95;19.75;;;128.50;2252.80;;;;;;5052313;28;20017;-58
2022/01/07 02:10:21;;;;;;;38.25;20.90;;;128.50;2252.80;;;;;;5052479;28;20031;-54
2022/01/07 02:12:47;;;;;;;39.15;20.15;;;128.60;2252.80;;;;;;5052480;28;20025;-56
2022/01/07 02:15:14;;;;;;;48.15;25.85;;;128.50;2252.80;;;;;;5052360;28;20380;-58
2022/01/07 02:17:46;;;;;;;34.13;21.15;;;128.50;2252.80;;;;;;5052244;28;20021;-55
2022/01/07 02:20:14;;;;;;;35.67;20.48;;;128.30;2252.80;;;;;;5052058;28;20032;-57
2022/01/07 02:22:40;;;;;;;32.75;18.40;;;128.40;2252.80;;;;;;5052254;28;20048;-55
2022/01/07 02:25:07;;;;;;;35.03;19.77;;;128.40;2252.80;;;;;;5052105;28;20053;-56
2022/01/07 02:27:37;;;;;;;68.38;33.05;;;128.40;2252.80;;;;;;5051966;28;20104;-55
2022/01/07 02:30:06;;;;;;;39.65;22.83;;;128.20;2252.80;;;;;;5051876;28;20031;-57
2022/01/07 02:32:31;;;;;;;35.75;21.50;;;128.40;2252.80;;;;;;5051185;28;20029;-55
2022/01/07 02:34:57;;;;;;;146.63;75.10;;;128.30;2252.80;;;;;;5051788;28;20405;-55
2022/01/07 02:37:23;;;;;;;141.35;67.88;;;128.20;2252.80;;;;;;5051651;28;20049;-57
2022/01/07 02:39:49;;;;;;;35.55;22.40;;;128.40;2252.80;;;;;;5051818;28;20111;-56
2022/01/07 02:42:15;;;;;;;138.90;67.65;;;128.30;2252.80;;;;;;5051780;28;20064;-56
2022/01/07 02:44:41;;;;;;;167.60;87.00;;;128.30;2252.80;;;;;;5051721;28;20052;-55
2022/01/07 02:47:08;;;;;;;41.35;25.55;;;128.30;2252.80;;;;;;5052036;28;20565;-55
2022/01/07 02:49:34;;;;;;;37.47;21.33;;;128.20;2252.80;;;;;;5051468;28;20055;-58
2022/01/07 02:52:00;;;;;;;40.35;22.80;;;128.20;2252.80;;;;;;5051503;28;20033;-55
2022/01/07 02:54:26;;;;;;;37.53;22.45;;;128.10;2252.80;;;;;;5051378;28;20498;-56
2022/01/07 02:56:52;;;;;;;37.03;19.27;;;128.10;2252.80;;;;;;5051577;28;20225;-56
2022/01/07 02:59:17;;;;;;;49.45;27.08;;;128.10;2252.80;;;;;;5051595;28;20074;-56
2022/01/07 03:01:43;;;;;;;58.60;32.08;;;128.00;2252.80;;;;;;5051350;28;20040;-55
2022/01/07 03:04:09;;;;;;;70.63;23.67;;;128.10;2252.80;;;;;;5051523;28;20049;-55
2022/01/07 03:06:35;;;;;;;33.25;21.67;;;128.20;2252.80;;;;;;5051318;28;20112;-58
2022/01/07 03:09:02;;;;;;;33.60;21.27;;;128.00;2252.80;;;;;;5051143;28;20029;-58
2022/01/07 03:11:28;;;;;;;27.80;18.27;;;103.30;2227.20;;;;;;5051517;28;20345;-55
2022/01/07 03:13:53;;;;;;;32.35;18.88;;;103.30;2227.20;;;;;;5050844;28;20048;-55
2022/01/07 03:16:19;;;;;;;36.67;23.33;;;103.30;2227.20;;;;;;5051189;28;20027;-55
2022/01/07 03:18:45;;;;;;;34.60;21.52;;;103.30;2227.20;;;;;;5051116;28;20039;-56
2022/01/07 03:21:11;;;;;;;28.30;17.13;;;103.30;2227.20;;;;;;5051183;28;20025;-56
2022/01/07 03:23:37;;;;;;;27.05;16.83;;;103.30;2227.20;;;;;;5050950;28;20552;-54
2022/01/07 03:26:07;;;;;;;40.30;20.98;;;128.00;2252.80;;;;;;5050829;28;20052;-54
2022/01/07 03:28:32;;;;;;;27.05;15.82;;;128.10;2252.80;;;;;;5050813;28;20107;-55
2022/01/07 03:30:58;;;;;;;38.38;22.65;;;128.00;2252.80;;;;;;5050770;28;20076;-54
2022/01/07 03:33:25;;;;;;;22.95;14.10;;;128.00;2252.80;;;;;;5050699;28;20041;-55
2022/01/07 03:35:51;;;;;;;23.70;15.00;;;128.00;2252.80;;;;;;5050801;28;20025;-53
2022/01/07 03:38:17;;;;;;;30.27;18.98;;;128.00;2252.80;;;;;;5050734;28;20483;-55
2022/01/07 03:40:42;;;;;;;49.20;24.88;;;128.00;2252.80;;;;;;5050605;28;20021;-55
2022/01/07 03:43:08;;;;;;;36.80;22.42;;;103.30;2227.20;;;;;;5050000;28;20040;-58
2022/01/07 03:45:34;;;;;;;29.15;18.15;;;128.10;2252.80;;;;;;5050321;28;20025;-55
2022/01/07 03:48:00;;;;;;;60.85;35.35;;;128.20;2252.80;;;;;;5050611;28;20036;-57
2022/01/07 03:50:28;;;;;;;41.45;23.88;;;128.20;2252.80;;;;;;5050341;28;20112;-54
2022/01/07 03:52:55;;;;;;;30.67;17.83;;;128.20;2252.80;;;;;;5050174;28;20033;-58
2022/01/07 03:55:25;;;;;;;35.65;21.98;;;128.10;2252.80;;;;;;5050192;28;20037;-56
2022/01/07 03:57:51;;;;;;;28.48;17.38;;;128.10;2252.80;;;;;;5050683;28;20088;-55
2022/01/07 04:00:23;;;;;;;27.60;15.13;;;128.10;2252.80;;;;;;5050541;28;20136;-55
2022/01/07 04:02:49;;;;;;;54.72;31.52;;;128.00;2252.80;;;;;;5050339;28;20116;-54
2022/01/07 04:05:18;;;;;;;86.88;65.15;;;103.30;2227.20;;;;;;5050229;28;20444;-58
2022/01/07 04:07:44;;;;;;;23.27;18.38;;;103.30;2227.20;;;;;;5049968;28;20021;-58
2022/01/07 04:10:10;;;;;;;113.43;101.18;;;103.20;2227.20;;;;;;5050212;28;20031;-54
2022/01/07 04:12:36;;;;;;;36.00;25.40;;;128.00;2252.80;;;;;;5050359;28;20395;-55
2022/01/07 04:15:08;;;;;;;33.88;28.00;;;103.20;2227.20;;;;;;5049835;28;20037;-58
2022/01/07 04:17:40;;;;;;;18.52;12.50;;;103.00;2227.20;;;;;;5050023;28;20421;-55
2022/01/07 04:20:07;;;;;;;17.08;11.68;;;103.00;2227.20;;;;;;5050016;28;20029;-58
2022/01/07 04:22:33;;;;;;;23.05;17.90;;;102.90;2227.20;;;;;;5050432;28;20021;-55
2022/01/07 04:25:05;;;;;;;23.50;12.68;;;103.00;2227.20;;;;;;5050106;28;20424;-58
2022/01/07 04:27:31;;;;;;;20.52;13.85;;;103.00;2227.20;;;;;;5050043;28;20052;-57
2022/01/07 04:29:56;;;;;;;20.25;12.30;;;103.10;2227.20;;;;;;5049865;28;20048;-55
2022/01/07 04:32:22;;;;;;;20.45;13.98;;;103.00;2227.20;;;;;;5049840;28;20087;-55
2022/01/07 04:34:49;;;;;;;14.82;9.82;;;103.00;2227.20;;;;;;5049853;28;20037;-55
2022/01/07 04:37:15;;;;;;;17.55;10.77;;;103.00;2227.20;;;;;;5049717;28;20491;-55
2022/01/07 04:39:41;;;;;;;17.83;10.65;;;102.80;2227.20;;;;;;5049914;28;20025;-54
2022/01/07 04:42:06;;;;;;;14.63;7.68;;;102.80;2227.20;;;;;;5049730;28;20021;-55
2022/01/07 04:44:32;;;;;;;29.10;19.67;;;102.90;2227.20;;;;;;5049918;28;20103;-55
2022/01/07 04:46:58;;;;;;;22.23;13.07;;;102.90;2227.20;;;;;;5049897;28;20025;-55
2022/01/07 04:49:24;;;;;;;14.30;9.80;;;102.90;2227.20;;;;;;5049646;28;20491;-58
2022/01/07 04:51:49;;;;;;;11.70;7.13;;;102.80;2227.20;;;;;;5049843;28;20028;-57
2022/01/07 04:54:15;;;;;;;14.48;6.70;;;102.60;2227.20;;;;;;5050082;28;20532;-58
2022/01/07 04:56:41;;;;;;;10.10;7.03;;;102.70;2227.20;;;;;;5054057;28;20025;-57
2022/01/07 04:59:07;;;;;;;10.75;7.00;;;102.50;2227.20;;;;;;5053648;28;20379;-55
2022/01/07 05:01:32;;;;;;;13.32;8.10;;;102.70;2227.20;;;;;;5053272;28;20040;-55
2022/01/07 05:03:58;;;;;;;11.55;6.82;;;102.80;2227.20;;;;;;5053516;28;20395;-54
2022/01/07 05:08:50;;;;;;;9.68;6.78;;;102.70;2227.20;;;;;;5053594;28;20064;-55
2022/01/07 05:11:15;;;;;;;10.05;5.45;;;102.60;2227.20;;;;;;5053411;28;20252;-58
2022/01/07 05:13:41;;;;;;;10.40;8.05;;;102.60;2227.20;;;;;;5053377;28;20095;-55
2022/01/07 05:16:07;;;;;;;10.25;6.78;;;102.60;2227.20;;;;;;5053682;28;20094;-54
2022/01/07 05:18:33;;;;;;;10.07;6.25;;;102.40;2227.20;;;;;;5053201;28;20091;-56
2022/01/07 05:20:59;;;;;;;9.95;6.63;;;102.40;2227.20;;;;;;5053452;28;20031;-55
2022/01/07 05:23:24;;;;;;;10.80;5.93;;;102.40;2227.20;;;;;;5053062;28;20529;-55
2022/01/07 05:25:50;;;;;;;10.25;6.38;;;77.70;2227.20;;;;;;5053224;28;20051;-56
2022/01/07 05:28:16;;;;;;;8.25;5.38;;;77.70;2227.20;;;;;;5053064;28;20037;-56
2022/01/07 05:30:42;;;;;;;9.60;5.95;;;77.70;2227.20;;;;;;5053209;28;20033;-57
2022/01/07 05:33:08;;;;;;;9.27;6.78;;;77.50;2227.20;;;;;;5053226;28;20098;-55
2022/01/07 05:35:33;;;;;;;9.70;5.78;;;77.40;2227.20;;;;;;5052961;28;20032;-54
2022/01/07 05:37:59;;;;;;;12.80;6.82;;;77.50;2227.20;;;;;;5052926;28;20053;-57
2022/01/07 05:40:25;;;;;;;10.40;5.85;;;77.40;2227.20;;;;;;5052779;28;20029;-56
2022/01/07 05:42:51;;;;;;;13.10;6.95;;;77.40;2227.20;;;;;;5053111;28;20056;-55
2022/01/07 05:45:16;;;;;;;9.63;6.22;;;77.30;2227.20;;;;;;5052922;28;20480;-55
2022/01/07 05:47:42;;;;;;;8.63;5.47;;;77.50;2227.20;;;;;;5052846;28;20032;-55
2022/01/07 05:50:09;;;;;;;9.45;6.20;;;77.60;2227.20;;;;;;5052828;28;20032;-56
2022/01/07 05:52:34;;;;;;;11.98;7.30;;;77.60;2227.20;;;;;;5052578;28;20108;-56
2022/01/07 05:55:00;;;;;;;9.77;6.70;;;77.60;2227.20;;;;;;5052574;28;20119;-54
2022/01/07 05:57:27;;;;;;;9.57;6.45;;;77.60;2227.20;;;;;;5052367;28;20044;-56
2022/01/07 05:59:53;;;;;;;10.52;6.63;;;77.40;2227.20;;;;;;5052673;28;20036;-56
2022/01/07 06:02:19;;;;;;;11.60;6.35;;;77.40;2227.20;;;;;;5052363;28;20495;-55
2022/01/07 06:04:45;;;;;;;17.35;9.07;;;77.40;2227.20;;;;;;5052580;28;20040;-57
2022/01/07 06:07:12;;;;;;;12.88;7.90;;;77.40;2227.20;;;;;;5051441;28;20053;-56
2022/01/07 06:09:37;;;;;;;16.27;8.20;;;77.50;2227.20;;;;;;5052283;28;20039;-57
2022/01/07 06:12:03;;;;;;;14.30;7.57;;;77.50;2227.20;;;;;;5052504;28;20521;-55
2022/01/07 06:14:30;;;;;;;13.68;8.55;;;77.30;2227.20;;;;;;5052516;28;20048;-54
2022/01/07 06:16:56;;;;;;;13.98;8.77;;;77.40;2227.20;;;;;;5052406;28;20423;-55
2022/01/07 06:19:21;;;;;;;11.90;8.38;;;77.40;2227.20;;;;;;5052396;28;20021;-58
2022/01/07 06:21:47;;;;;;;12.30;7.50;;;77.50;2227.20;;;;;;5052279;28;20108;-55
2022/01/07 06:24:13;;;;;;;17.05;9.98;;;77.50;2227.20;;;;;;5052050;28;20017;-57
2022/01/07 06:26:39;;;;;;;24.65;14.68;;;77.40;2227.20;;;;;;5052228;28;20387;-58
2022/01/07 06:29:05;;;;;;;24.25;14.57;;;77.30;2227.20;;;;;;5051918;28;20496;-58
2022/01/07 06:31:31;;;;;;;34.72;18.92;;;77.40;2227.20;;;;;;5052072;28;20036;-55
2022/01/07 06:33:58;;;;;;;25.63;15.75;;;77.50;2227.20;;;;;;5051728;28;20043;-55
2022/01/07 06:36:25;;;;;;;18.45;11.10;;;77.60;2227.20;;;;;;5050472;28;20391;-57
2022/01/07 06:38:51;;;;;;;17.88;11.75;;;77.50;2227.20;;;;;;5051927;28;20021;-57
2022/01/07 06:41:17;;;;;;;15.27;9.80;;;77.60;2227.20;;;;;;5051650;28;20120;-55
2022/01/07 06:43:43;;;;;;;14.57;8.70;;;77.70;2227.20;;;;;;5051656;28;20096;-56
2022/01/07 06:46:11;;;;;;;19.42;11.13;;;77.60;2227.20;;;;;;5051981;28;20013;-56
2022/01/07 06:48:38;;;;;;;15.27;9.38;;;77.70;2227.20;;;;;;5051471;28;20029;-56
2022/01/07 06:51:03;;;;;;;37.38;22.25;;;77.70;2227.20;;;;;;5051410;28;20029;-55
2022/01/07 06:53:30;;;;;;;39.42;21.70;;;77.60;2227.20;;;;;;5051299;28;20044;-58
2022/01/07 06:55:57;;;;;;;31.33;20.83;;;77.40;2227.20;;;;;;5051366;28;20020;-57
2022/01/07 06:58:23;;;;;;;24.70;18.95;;;77.40;2227.20;;;;;;5051481;28;20028;-56
2022/01/07 07:00:48;;;;;;;53.10;33.97;;;77.50;2227.20;;;;;;5051356;28;20070;-55
2022/01/07 07:03:14;;;;;;;101.70;50.72;;;77.50;2227.20;;;;;;5051162;28;20053;-55
2022/01/07 07:05:40;;;;;;;34.15;21.27;;;77.50;2227.20;;;;;;5051410;28;20029;-55
2022/01/07 07:08:05;;;;;;;31.08;22.50;;;77.40;2227.20;;;;;;5051113;28;20041;-55
2022/01/07 07:10:31;;;;;;;30.20;23.13;;;77.40;2227.20;;;;;;5051265;28;20028;-55
2022/01/07 07:12:57;;;;;;;27.77;20.92;;;77.50;2227.20;;;;;;5051553;28;20040;-56
2022/01/07 07:15:23;;;;;;;79.25;38.83;;;77.50;2227.20;;;;;;5050811;28;20517;-56
2022/01/07 07:17:48;;;;;;;106.20;49.95;;;77.50;2227.20;;;;;;5051135;28;20021;-55
2022/01/07 07:20:14;;;;;;;78.75;43.60;;;77.70;2227.20;;;;;;5050980;28;20426;-55
2022/01/07 07:22:40;;;;;;;41.28;23.85;;;77.70;2227.20;;;;;;5051039;28;20490;-57
2022/01/07 07:25:06;;;;;;;255.75;148.25;;;77.70;2227.20;;;;;;5050787;28;20040;-55
2022/01/07 07:27:32;;;;;;;176.60;109.20;;;102.40;2227.20;;;;;;5050703;28;20537;-56
2022/01/07 07:29:58;;;;;;;100.65;61.25;;;102.40;2227.20;;;;;;5050813;28;20052;-55
2022/01/07 07:32:27;;;;;;;191.15;112.05;;;102.50;2227.20;;;;;;5050769;28;20043;-56
2022/01/07 07:37:37;;;;;;;192.80;118.57;;;77.70;2227.20;;;;;;5050729;28;20486;-55
2022/01/07 07:40:04;;;;;;;117.28;74.38;;;77.70;2227.20;;;;;;5050431;28;20029;-55
2022/01/07 07:42:30;;;;;;;108.38;66.70;;;102.40;2227.20;;;;;;5050969;28;20039;-58
2022/01/07 07:44:55;;;;;;;99.75;65.45;;;102.50;2227.20;;;;;;5050492;28;20082;-57
2022/01/07 07:47:21;;;;;;;120.15;77.68;;;102.50;2227.20;;;;;;5050692;28;20021;-57
2022/01/07 07:49:47;;;;;;;95.90;62.42;;;102.60;2227.20;;;;;;5050673;28;20036;-57
2022/01/07 07:52:13;;;;;;;54.90;30.70;;;102.60;2227.20;;;;;;5049243;28;20082;-55
2022/01/07 07:54:39;;;;;;;131.63;84.40;;;102.50;2227.20;;;;;;5050314;28;20072;-57
2022/01/07 07:57:05;;;;;;;146.57;85.80;;;102.60;2227.20;;;;;;5050184;28;20036;-58
2022/01/07 07:59:31;;;;;;;379.25;269.92;;;102.50;2227.20;;;;;;5050532;28;20028;-57
2022/01/07 08:01:57;;;;;;;360.38;248.65;;;77.70;2227.20;;;;;;5050067;28;20048;-57
2022/01/07 08:04:22;;;;;;;320.42;219.90;;;77.70;2227.20;;;;;;5049933;28;20068;-55
2022/01/07 08:06:49;;;;;;;304.83;209.70;;;102.40;2227.20;;;;;;5050437;28;20032;-56
2022/01/07 08:09:15;;;;;;;259.40;167.07;;;102.50;2227.20;;;;;;5050096;28;20036;-62
2022/01/07 08:11:58;;;;;;;144.13;93.03;;;102.40;2227.20;;;;;;5050247;28;20112;-63
2022/01/07 08:17:08;;;;;;;177.82;114.28;;;102.80;2227.20;;;;;;5050611;28;20040;-60
2022/01/07 08:19:35;;;;;;;145.50;96.53;;;102.90;2227.20;;;;;;5049956;28;20024;-61
2022/01/07 08:22:01;;;;;;;160.63;103.88;;;103.20;2227.20;;;;;;5050105;28;20021;-60
2022/01/07 08:24:27;;;;;;;207.80;137.20;;;103.30;2227.20;;;;;;5050234;28;20029;-62
2022/01/07 08:26:53;;;;;;;129.00;88.50;;;128.30;2252.80;;;;;;5049888;28;20482;-57
2022/01/07 08:29:20;;;;;;;117.05;78.35;;;128.60;2252.80;;;;;;5049526;28;20071;-56
2022/01/07 08:36:57;;;;;;;138.38;98.95;;;205.50;2022.40;;;;;;5050302;28;20036;-56
2022/01/07 08:39:24;;;;;;;149.10;105.70;;;205.40;1996.80;;;;;;5049905;28;20029;-61
2022/01/07 08:41:50;;;;;;;119.78;84.43;;;179.70;2073.60;;;;;;5049896;28;20033;-63
2022/01/07 08:44:16;;;;;;;109.05;74.93;;;154.50;2124.80;;;;;;5049906;28;20035;-57
2022/01/07 08:46:43;;;;;;;94.93;65.93;;;153.80;2227.20;;;;;;5049808;28;20036;-58
2022/01/07 08:49:09;;;;;;;126.95;88.13;;;153.90;2227.20;;;;;;5049702;28;20031;-57
2022/01/07 08:51:35;;;;;;;96.35;70.55;;;179.40;2176.00;;;;;;5049500;28;20029;-63
2022/01/07 08:54:01;;;;;;;117.93;90.05;;;205.30;1971.20;;;;;;5049713;28;20040;-58
2022/01/07 08:56:27;;;;;;;101.15;75.03;;;256.10;1766.40;;;;;;5049567;28;20017;-57
2022/01/07 08:58:54;;;;;;;98.07;73.97;;;281.90;1715.20;;;;;;5049496;28;20031;-58
2022/01/07 09:01:21;;;;;;;195.15;108.45;;;282.40;1638.40;;;;;;5049661;28;20075;-58
2022/01/07 09:03:47;;;;;;;111.00;84.47;;;307.60;1561.60;;;;;;5049638;28;20063;-57
2022/01/07 09:06:13;;;;;;;72.20;60.90;;;308.10;1561.60;;;;;;5049863;28;20021;-58
2022/01/07 09:08:39;;;;;;;40.47;33.72;;;333.10;1510.40;;;;;;5049667;28;20032;-64
2022/01/07 09:11:04;;;;;;;505.65;381.92;;;333.60;1459.20;;;;;;5049708;28;20025;-65
2022/01/07 09:13:30;;;;;;;47.75;40.65;;;333.70;1408.00;;;;;;5049621;28;20033;-61
2022/01/07 09:15:56;;;;;;;66.30;50.78;;;333.30;1408.00;;;;;;5049452;28;20033;-58
2022/01/07 09:18:22;;;;;;;47.65;37.95;;;359.30;1331.20;;;;;;5049772;28;20463;-63
2022/01/07 09:20:48;;;;;;;47.58;39.05;;;333.50;1408.00;;;;;;5049541;28;20555;-61
2022/01/07 09:23:15;;;;;;;40.63;34.60;;;333.40;1433.60;;;;;;5049481;28;20044;-55
2022/01/07 09:25:41;;;;;;;36.97;31.52;;;358.80;1356.80;;;;;;5049353;28;20029;-56
2022/01/07 09:28:08;;;;;;;37.72;31.55;;;333.70;1356.80;;;;;;5049573;28;20029;-62
2022/01/07 09:30:35;;;;;;;34.13;29.75;;;308.10;1433.60;;;;;;5047196;28;20120;-63
2022/01/07 09:33:02;;;;;;;53.40;44.65;;;333.70;1382.40;;;;;;5047868;28;20542;-67
2022/01/07 09:35:28;;;;;;;42.88;31.33;;;358.90;1356.80;;;;;;5047730;28;20766;-56
2022/01/07 09:37:54;;;;;;;57.17;48.90;;;333.40;1408.00;;;;;;5047512;28;20028;-56
2022/01/07 09:40:21;;;;;;;42.97;32.28;;;333.50;1408.00;;;;;;5048055;28;20074;-59
2022/01/07 09:43:15;;;;;;;80.43;59.92;;;307.80;1433.60;;;;;;5049945;28;20071;-57
2022/01/07 09:45:41;;;;;;;33.30;24.20;;;307.60;1459.20;;;;;;5051006;28;20064;-58
2022/01/07 09:48:08;;;;;;;29.33;21.52;;;281.60;1510.40;;;;;;5051062;28;20029;-62
2022/01/07 09:50:35;;;;;;;37.00;24.23;;;231.30;1587.20;;;;;;5051109;28;20044;-56
2022/01/07 09:53:09;;;;;;;52.03;34.60;;;231.30;1587.20;;;;;;5051193;28;20021;-55
2022/01/07 09:55:36;;;;;;;41.13;24.73;;;205.50;1689.60;;;;;;5051028;28;20033;-56
2022/01/07 09:58:03;;;;;;;47.83;33.17;;;205.10;1740.80;;;;;;5050661;28;20052;-57
2022/01/07 10:00:36;;;;;;;27.63;17.33;;;180.10;1766.40;;;;;;5050967;28;20074;-56
2022/01/07 10:03:08;;;;;;;34.15;25.13;;;179.70;1817.60;;;;;;5050675;28;20037;-56
2022/01/07 10:05:50;;;;;;;43.53;27.70;;;179.80;1817.60;;;;;;5050673;28;20033;-58
2022/01/07 10:08:20;;;;;;;116.93;57.10;;;179.70;1843.20;;;;;;5050568;28;20086;-56
2022/01/07 10:10:46;;;;;;;32.78;21.08;;;179.80;1817.60;;;;;;5050387;28;20426;-56
2022/01/07 10:13:11;;;;;;;27.77;20.25;;;179.70;1817.60;;;;;;5050828;28;20033;-56
2022/01/07 10:15:39;;;;;;;32.78;20.85;;;179.60;1868.80;;;;;;5050862;28;20025;-57
2022/01/07 10:18:05;;;;;;;31.95;19.05;;;179.60;1843.20;;;;;;5050897;28;20064;-56
2022/01/07 10:20:37;;;;;;;40.55;23.63;;;179.40;1843.20;;;;;;5050768;28;20475;-61
2022/01/07 10:23:06;;;;;;;29.50;20.48;;;179.20;1894.40;;;;;;5050068;28;20100;-57
2022/01/07 10:25:35;;;;;;;45.45;28.88;;;179.30;1920.00;;;;;;5050548;28;20745;-56
2022/01/07 10:28:08;;;;;;;29.00;18.50;;;179.40;1894.40;;;;;;5050447;28;20082;-56
2022/01/07 10:30:39;;;;;;;32.85;20.13;;;154.40;1894.40;;;;;;5050226;28;20040;-56
2022/01/07 10:33:44;;;;;;;32.13;22.05;;;179.30;1894.40;;;;;;5050359;28;20068;-62
2022/01/07 10:36:09;;;;;;;42.63;29.23;;;179.40;1945.60;;;;;;5047495;28;20415;-61
2022/01/07 10:38:59;;;;;;;36.92;23.45;;;179.50;1945.60;;;;;;5047541;28;20037;-56
2022/01/07 10:41:25;;;;;;;27.20;20.02;;;154.30;1920.00;;;;;;5049271;28;20171;-63
2022/01/07 10:43:52;;;;;;;29.83;20.88;;;153.90;1971.20;;;;;;5049817;28;20032;-58
2022/01/07 10:46:27;;;;;;;40.85;25.77;;;154.20;1945.60;;;;;;5049602;28;20045;-56
2022/01/07 10:48:54;;;;;;;28.15;18.73;;;154.10;1945.60;;;;;;5049364;28;20458;-57
2022/01/07 10:51:25;;;;;;;27.23;19.73;;;153.80;1971.20;;;;;;5049651;28;20032;-56
2022/01/07 10:53:57;;;;;;;42.47;26.10;;;153.90;1996.80;;;;;;5048994;28;20132;-55
2022/01/07 10:56:45;;;;;;;34.50;21.77;;;154.20;1971.20;;;;;;5048554;28;20040;-57
2022/01/07 10:59:16;;;;;;;27.77;17.23;;;154.20;2022.40;;;;;;5047895;28;20041;-56
2022/01/07 11:01:50;;;;;;;30.17;19.30;;;154.10;1996.80;;;;;;5047097;28;20471;-56
2022/01/07 11:04:17;;;;;;;52.53;28.80;;;153.90;1996.80;;;;;;5047046;28;20614;-56
2022/01/07 11:06:45;;;;;;;29.33;19.33;;;154.10;1996.80;;;;;;5047141;28;20522;-55
2022/01/07 11:09:12;;;;;;;31.17;19.88;;;153.80;2022.40;;;;;;5047164;28;20060;-56
2022/01/07 11:11:50;;;;;;;37.95;26.20;;;153.80;2022.40;;;;;;5047705;28;20122;-56
2022/01/07 11:14:27;;;;;;;32.38;20.83;;;154.10;2022.40;;;;;;5048676;28;20036;-56
2022/01/07 11:16:57;;;;;;;162.05;84.05;;;154.10;1996.80;;;;;;5049706;28;20035;-56
2022/01/07 11:19:28;;;;;;;41.65;24.75;;;154.30;1971.20;;;;;;5049346;28;20037;-58
2022/01/07 11:21:55;;;;;;;49.67;28.75;;;153.80;2048.00;;;;;;5049225;28;20068;-56
2022/01/07 11:24:42;;;;;;;49.75;28.20;;;154.00;2022.40;;;;;;5049412;28;20100;-56
2022/01/07 11:27:14;;;;;;;59.90;31.38;;;154.20;1971.20;;;;;;5049142;28;20110;-56
2022/01/07 11:30:03;;;;;;;25.65;17.13;;;154.10;1996.80;;;;;;5049396;28;20043;-61
2022/01/07 11:32:36;;;;;;;40.65;26.52;;;154.00;1945.60;;;;;;5048808;28;20045;-57
2022/01/07 11:35:18;;;;;;;35.58;22.90;;;153.90;1996.80;;;;;;5049018;28;20398;-57
2022/01/07 11:38:00;;;;;;;38.72;24.92;;;153.80;2022.40;;;;;;5049249;28;20106;-56
2022/01/07 11:40:31;;;;;;;37.05;24.02;;;153.90;2048.00;;;;;;5048427;28;20111;-58
2022/01/07 11:42:58;;;;;;;51.47;29.92;;;153.90;2022.40;;;;;;5048794;28;20024;-60
2022/01/07 11:45:32;;;;;;;30.50;18.50;;;153.90;2022.40;;;;;;5048979;28;20078;-60
2022/01/07 11:48:16;;;;;;;27.00;18.45;;;154.10;1996.80;;;;;;5048957;28;20512;-56
2022/01/07 11:51:07;;;;;;;40.03;23.05;;;153.90;1996.80;;;;;;5049132;28;20052;-57
2022/01/07 11:53:39;;;;;;;30.60;17.92;;;153.70;1996.80;;;;;;5048100;28;20029;-59
2022/01/07 11:56:06;;;;;;;31.58;25.15;;;153.90;1971.20;;;;;;5048643;28;20033;-57
2022/01/07 11:58:39;;;;;;;27.55;16.42;;;153.70;2022.40;;;;;;5049010;28;20025;-56
2022/01/07 12:01:05;;;;;;;25.88;15.25;;;153.80;2022.40;;;;;;5048612;28;20036;-56
2022/01/07 12:03:44;;;;;;;24.63;15.35;;;153.60;2022.40;;;;;;5048306;28;20408;-57
2022/01/07 12:06:24;;;;;;;23.65;15.63;;;153.90;1996.80;;;;;;5048221;28;20052;-57
2022/01/07 12:08:59;;;;;;;34.50;21.70;;;153.90;2022.40;;;;;;5048738;28;20033;-56
2022/01/07 12:11:27;;;;;;;48.22;28.25;;;154.00;1996.80;;;;;;5048441;28;20056;-56
2022/01/07 12:13:53;;;;;;;70.38;43.13;;;154.10;2022.40;;;;;;5048356;28;20483;-57
2022/01/07 12:16:19;;;;;;;34.03;19.52;;;154.00;2022.40;;;;;;5048766;28;20070;-59